sensor_id;sensor_type;location;lat;lon;timestamp;P1;durP1;ratioP1;P2;durP2;ratioP2
7971;SDS011;4031;49.758;6.120;2024-01-16T00:00:37;10.87;;;6.67;;
7971;SDS011;4031;49.758;6.120;2024-01-16T00:03:03;9.83;;;4.50;;
7971;SDS011;4031;49.758;6.120;2024-01-16T00:05:29;9.53;;;5.00;;
7971;SDS011;4031;49.758;6.120;2024-01-16T00:07:55;4.73;;;4.20;;
7971;SDS011;4031;49.758;6.120;2024-01-16T00:10:20;6.00;;;4.60;;
7971;SDS011;4031;49.758;6.120;2024-01-16T00:12:46;6.27;;;4.10;;
7971;SDS011;4031;49.758;6.120;2024-01-16T00:15:12;4.33;;;3.93;;
7971;SDS011;4031;49.758;6.120;2024-01-16T00:17:37;4.80;;;4.33;;
7971;SDS011;4031;49.758;6.120;2024-01-16T00:20:03;8.40;;;4.47;;
7971;SDS011;4031;49.758;6.120;2024-01-16T00:22:30;5.55;;;4.60;;
7971;SDS011;4031;49.758;6.120;2024-01-16T00:24:56;5.57;;;3.30;;
7971;SDS011;4031;49.758;6.120;2024-01-16T00:27:21;5.90;;;4.27;;
7971;SDS011;4031;49.758;6.120;2024-01-16T00:29:47;8.77;;;5.00;;
7971;SDS011;4031;49.758;6.120;2024-01-16T00:32:13;8.20;;;5.13;;
7971;SDS011;4031;49.758;6.120;2024-01-16T00:34:41;10.02;;;4.50;;
7971;SDS011;4031;49.758;6.120;2024-01-16T00:37:07;5.60;;;3.72;;
7971;SDS011;4031;49.758;6.120;2024-01-16T00:39:33;12.33;;;4.83;;
7971;SDS011;4031;49.758;6.120;2024-01-16T00:41:59;8.23;;;4.40;;
7971;SDS011;4031;49.758;6.120;2024-01-16T00:44:27;5.70;;;4.30;;
7971;SDS011;4031;49.758;6.120;2024-01-16T00:46:53;7.37;;;4.90;;
7971;SDS011;4031;49.758;6.120;2024-01-16T00:49:18;7.67;;;4.47;;
7971;SDS011;4031;49.758;6.120;2024-01-16T00:51:45;5.28;;;4.53;;
7971;SDS011;4031;49.758;6.120;2024-01-16T00:54:10;6.37;;;4.03;;
7971;SDS011;4031;49.758;6.120;2024-01-16T00:56:36;7.60;;;4.83;;
7971;SDS011;4031;49.758;6.120;2024-01-16T00:59:02;5.97;;;3.90;;
7971;SDS011;4031;49.758;6.120;2024-01-16T01:01:28;5.70;;;4.97;;
7971;SDS011;4031;49.758;6.120;2024-01-16T01:03:54;7.43;;;5.57;;
7971;SDS011;4031;49.758;6.120;2024-01-16T01:06:20;6.50;;;5.77;;
7971;SDS011;4031;49.758;6.120;2024-01-16T01:08:46;7.30;;;4.15;;
7971;SDS011;4031;49.758;6.120;2024-01-16T01:11:12;5.27;;;4.40;;
7971;SDS011;4031;49.758;6.120;2024-01-16T01:13:37;10.87;;;4.67;;
7971;SDS011;4031;49.758;6.120;2024-01-16T01:16:03;11.73;;;5.50;;
7971;SDS011;4031;49.758;6.120;2024-01-16T01:18:29;5.10;;;4.07;;
7971;SDS011;4031;49.758;6.120;2024-01-16T01:20:55;7.40;;;4.90;;
7971;SDS011;4031;49.758;6.120;2024-01-16T01:23:21;5.00;;;4.50;;
7971;SDS011;4031;49.758;6.120;2024-01-16T01:25:47;6.07;;;4.00;;
7971;SDS011;4031;49.758;6.120;2024-01-16T01:28:12;10.07;;;4.07;;
7971;SDS011;4031;49.758;6.120;2024-01-16T01:30:38;8.63;;;4.10;;
7971;SDS011;4031;49.758;6.120;2024-01-16T01:33:04;7.10;;;4.80;;
7971;SDS011;4031;49.758;6.120;2024-01-16T01:35:30;7.53;;;4.40;;
7971;SDS011;4031;49.758;6.120;2024-01-16T01:37:56;12.63;;;3.17;;
7971;SDS011;4031;49.758;6.120;2024-01-16T01:40:22;5.63;;;3.33;;
7971;SDS011;4031;49.758;6.120;2024-01-16T01:42:47;4.20;;;3.80;;
7971;SDS011;4031;49.758;6.120;2024-01-16T01:45:13;6.27;;;4.17;;
7971;SDS011;4031;49.758;6.120;2024-01-16T01:47:39;5.60;;;3.87;;
7971;SDS011;4031;49.758;6.120;2024-01-16T01:50:09;5.80;;;3.90;;
7971;SDS011;4031;49.758;6.120;2024-01-16T01:52:36;10.25;;;4.75;;
7971;SDS011;4031;49.758;6.120;2024-01-16T01:55:04;9.52;;;3.90;;
7971;SDS011;4031;49.758;6.120;2024-01-16T01:57:35;5.07;;;3.95;;
7971;SDS011;4031;49.758;6.120;2024-01-16T02:00:01;6.77;;;3.80;;
7971;SDS011;4031;49.758;6.120;2024-01-16T02:02:29;4.60;;;3.83;;
7971;SDS011;4031;49.758;6.120;2024-01-16T02:04:56;4.33;;;1.90;;
7971;SDS011;4031;49.758;6.120;2024-01-16T02:07:22;3.80;;;3.50;;
7971;SDS011;4031;49.758;6.120;2024-01-16T02:09:48;9.93;;;4.53;;
7971;SDS011;4031;49.758;6.120;2024-01-16T02:12:15;7.60;;;4.35;;
7971;SDS011;4031;49.758;6.120;2024-01-16T02:14:41;5.70;;;3.90;;
7971;SDS011;4031;49.758;6.120;2024-01-16T02:17:07;5.60;;;4.87;;
7971;SDS011;4031;49.758;6.120;2024-01-16T02:19:32;4.00;;;3.23;;
7971;SDS011;4031;49.758;6.120;2024-01-16T02:21:59;5.17;;;3.83;;
7971;SDS011;4031;49.758;6.120;2024-01-16T02:24:26;5.10;;;3.50;;
7971;SDS011;4031;49.758;6.120;2024-01-16T02:26:52;6.30;;;4.23;;
7971;SDS011;4031;49.758;6.120;2024-01-16T02:29:18;3.60;;;3.25;;
7971;SDS011;4031;49.758;6.120;2024-01-16T02:31:44;6.10;;;4.03;;
7971;SDS011;4031;49.758;6.120;2024-01-16T02:34:10;7.50;;;3.93;;
7971;SDS011;4031;49.758;6.120;2024-01-16T02:36:36;5.60;;;3.90;;
7971;SDS011;4031;49.758;6.120;2024-01-16T02:39:02;8.82;;;4.05;;
7971;SDS011;4031;49.758;6.120;2024-01-16T02:41:28;4.03;;;3.63;;
7971;SDS011;4031;49.758;6.120;2024-01-16T02:43:53;4.10;;;3.73;;
7971;SDS011;4031;49.758;6.120;2024-01-16T02:46:19;8.43;;;3.77;;
7971;SDS011;4031;49.758;6.120;2024-01-16T02:48:45;10.23;;;4.57;;
7971;SDS011;4031;49.758;6.120;2024-01-16T02:51:11;6.03;;;4.72;;
7971;SDS011;4031;49.758;6.120;2024-01-16T02:53:37;9.82;;;4.80;;
7971;SDS011;4031;49.758;6.120;2024-01-16T02:56:03;4.97;;;2.83;;
7971;SDS011;4031;49.758;6.120;2024-01-16T02:58:29;7.30;;;4.28;;
7971;SDS011;4031;49.758;6.120;2024-01-16T03:00:58;5.38;;;3.60;;
7971;SDS011;4031;49.758;6.120;2024-01-16T03:03:24;6.67;;;3.40;;
7971;SDS011;4031;49.758;6.120;2024-01-16T03:05:50;5.53;;;3.40;;
7971;SDS011;4031;49.758;6.120;2024-01-16T03:08:15;8.30;;;4.03;;
7971;SDS011;4031;49.758;6.120;2024-01-16T03:10:41;5.60;;;3.83;;
7971;SDS011;4031;49.758;6.120;2024-01-16T03:13:07;4.75;;;3.10;;
7971;SDS011;4031;49.758;6.120;2024-01-16T03:15:33;9.20;;;4.80;;
7971;SDS011;4031;49.758;6.120;2024-01-16T03:17:59;5.20;;;3.50;;
7971;SDS011;4031;49.758;6.120;2024-01-16T03:20:26;4.50;;;3.88;;
7971;SDS011;4031;49.758;6.120;2024-01-16T03:22:52;6.13;;;4.82;;
7971;SDS011;4031;49.758;6.120;2024-01-16T03:25:18;8.70;;;4.53;;
7971;SDS011;4031;49.758;6.120;2024-01-16T03:27:44;5.30;;;3.60;;
7971;SDS011;4031;49.758;6.120;2024-01-16T03:30:10;10.40;;;4.87;;
7971;SDS011;4031;49.758;6.120;2024-01-16T03:32:37;4.17;;;3.60;;
7971;SDS011;4031;49.758;6.120;2024-01-16T03:35:03;4.38;;;3.60;;
7971;SDS011;4031;49.758;6.120;2024-01-16T03:37:32;10.93;;;4.82;;
7971;SDS011;4031;49.758;6.120;2024-01-16T03:39:59;8.82;;;4.05;;
7971;SDS011;4031;49.758;6.120;2024-01-16T03:42:25;4.72;;;3.60;;
7971;SDS011;4031;49.758;6.120;2024-01-16T03:44:51;7.30;;;4.27;;
7971;SDS011;4031;49.758;6.120;2024-01-16T03:47:17;9.03;;;4.43;;
7971;SDS011;4031;49.758;6.120;2024-01-16T03:49:43;3.80;;;3.50;;
7971;SDS011;4031;49.758;6.120;2024-01-16T03:52:09;7.50;;;3.60;;
7971;SDS011;4031;49.758;6.120;2024-01-16T03:54:35;10.80;;;5.03;;
7971;SDS011;4031;49.758;6.120;2024-01-16T03:57:00;6.40;;;4.17;;
7971;SDS011;4031;49.758;6.120;2024-01-16T03:59:26;8.23;;;4.57;;
7971;SDS011;4031;49.758;6.120;2024-01-16T04:01:52;7.70;;;3.90;;
7971;SDS011;4031;49.758;6.120;2024-01-16T04:04:17;6.17;;;2.90;;
7971;SDS011;4031;49.758;6.120;2024-01-16T04:06:43;4.40;;;3.20;;
7971;SDS011;4031;49.758;6.120;2024-01-16T04:09:09;8.77;;;3.63;;
7971;SDS011;4031;49.758;6.120;2024-01-16T04:11:35;4.53;;;4.10;;
7971;SDS011;4031;49.758;6.120;2024-01-16T04:14:01;7.65;;;4.38;;
7971;SDS011;4031;49.758;6.120;2024-01-16T04:16:27;6.60;;;4.55;;
7971;SDS011;4031;49.758;6.120;2024-01-16T04:18:53;6.85;;;3.92;;
7971;SDS011;4031;49.758;6.120;2024-01-16T04:21:19;8.37;;;3.70;;
7971;SDS011;4031;49.758;6.120;2024-01-16T04:23:44;8.57;;;5.67;;
7971;SDS011;4031;49.758;6.120;2024-01-16T04:26:10;8.97;;;4.37;;
7971;SDS011;4031;49.758;6.120;2024-01-16T04:28:36;6.60;;;4.60;;
7971;SDS011;4031;49.758;6.120;2024-01-16T04:31:02;9.73;;;3.70;;
7971;SDS011;4031;49.758;6.120;2024-01-16T04:33:29;5.70;;;3.85;;
7971;SDS011;4031;49.758;6.120;2024-01-16T04:35:55;5.50;;;4.28;;
7971;SDS011;4031;49.758;6.120;2024-01-16T04:38:21;6.38;;;4.10;;
7971;SDS011;4031;49.758;6.120;2024-01-16T04:40:46;10.30;;;4.77;;
7971;SDS011;4031;49.758;6.120;2024-01-16T04:43:12;11.17;;;4.50;;
7971;SDS011;4031;49.758;6.120;2024-01-16T04:45:38;3.83;;;3.47;;
7971;SDS011;4031;49.758;6.120;2024-01-16T04:48:04;5.60;;;4.37;;
7971;SDS011;4031;49.758;6.120;2024-01-16T04:50:30;5.95;;;4.55;;
7971;SDS011;4031;49.758;6.120;2024-01-16T04:52:59;5.70;;;4.13;;
7971;SDS011;4031;49.758;6.120;2024-01-16T04:55:25;9.23;;;4.68;;
7971;SDS011;4031;49.758;6.120;2024-01-16T04:57:52;8.57;;;4.75;;
7971;SDS011;4031;49.758;6.120;2024-01-16T05:00:19;5.40;;;4.53;;
7971;SDS011;4031;49.758;6.120;2024-01-16T05:02:45;6.93;;;3.43;;
7971;SDS011;4031;49.758;6.120;2024-01-16T05:05:11;5.78;;;4.72;;
7971;SDS011;4031;49.758;6.120;2024-01-16T05:07:38;10.55;;;5.55;;
7971;SDS011;4031;49.758;6.120;2024-01-16T05:10:05;7.50;;;4.80;;
7971;SDS011;4031;49.758;6.120;2024-01-16T05:12:32;9.63;;;5.05;;
7971;SDS011;4031;49.758;6.120;2024-01-16T05:14:58;4.00;;;3.70;;
7971;SDS011;4031;49.758;6.120;2024-01-16T05:17:23;8.17;;;5.20;;
7971;SDS011;4031;49.758;6.120;2024-01-16T05:19:49;8.30;;;4.63;;
7971;SDS011;4031;49.758;6.120;2024-01-16T05:22:15;8.20;;;3.70;;
7971;SDS011;4031;49.758;6.120;2024-01-16T05:24:41;8.43;;;4.57;;
7971;SDS011;4031;49.758;6.120;2024-01-16T05:27:07;5.97;;;4.50;;
7971;SDS011;4031;49.758;6.120;2024-01-16T05:29:34;7.80;;;5.20;;
7971;SDS011;4031;49.758;6.120;2024-01-16T05:32:02;5.03;;;4.38;;
7971;SDS011;4031;49.758;6.120;2024-01-16T05:34:29;6.22;;;4.60;;
7971;SDS011;4031;49.758;6.120;2024-01-16T05:36:55;7.93;;;4.93;;
7971;SDS011;4031;49.758;6.120;2024-01-16T05:39:20;7.23;;;4.83;;
7971;SDS011;4031;49.758;6.120;2024-01-16T05:41:46;5.97;;;3.90;;
7971;SDS011;4031;49.758;6.120;2024-01-16T05:44:12;3.73;;;3.43;;
7971;SDS011;4031;49.758;6.120;2024-01-16T05:46:38;5.60;;;3.73;;
7971;SDS011;4031;49.758;6.120;2024-01-16T05:49:03;10.10;;;5.60;;
7971;SDS011;4031;49.758;6.120;2024-01-16T05:51:29;8.20;;;4.40;;
7971;SDS011;4031;49.758;6.120;2024-01-16T05:53:55;6.20;;;4.33;;
7971;SDS011;4031;49.758;6.120;2024-01-16T05:56:21;9.93;;;5.20;;
7971;SDS011;4031;49.758;6.120;2024-01-16T05:58:47;7.40;;;4.80;;
7971;SDS011;4031;49.758;6.120;2024-01-16T06:01:13;4.23;;;3.80;;
7971;SDS011;4031;49.758;6.120;2024-01-16T06:03:39;5.40;;;4.50;;
7971;SDS011;4031;49.758;6.120;2024-01-16T06:06:05;7.13;;;4.18;;
7971;SDS011;4031;49.758;6.120;2024-01-16T06:08:32;4.65;;;4.15;;
7971;SDS011;4031;49.758;6.120;2024-01-16T06:10:58;9.75;;;4.18;;
7971;SDS011;4031;49.758;6.120;2024-01-16T06:13:24;5.40;;;3.47;;
7971;SDS011;4031;49.758;6.120;2024-01-16T06:15:50;12.17;;;5.60;;
7971;SDS011;4031;49.758;6.120;2024-01-16T06:18:16;6.43;;;4.23;;
7971;SDS011;4031;49.758;6.120;2024-01-16T06:20:41;6.47;;;5.03;;
7971;SDS011;4031;49.758;6.120;2024-01-16T06:23:07;11.60;;;5.13;;
7971;SDS011;4031;49.758;6.120;2024-01-16T06:25:33;10.53;;;5.30;;
7971;SDS011;4031;49.758;6.120;2024-01-16T06:27:58;7.10;;;4.50;;
7971;SDS011;4031;49.758;6.120;2024-01-16T06:30:24;12.80;;;4.73;;
7971;SDS011;4031;49.758;6.120;2024-01-16T06:32:50;9.03;;;6.03;;
7971;SDS011;4031;49.758;6.120;2024-01-16T06:35:16;5.90;;;4.27;;
7971;SDS011;4031;49.758;6.120;2024-01-16T06:37:42;11.60;;;5.50;;
7971;SDS011;4031;49.758;6.120;2024-01-16T06:40:08;12.50;;;6.55;;
7971;SDS011;4031;49.758;6.120;2024-01-16T06:42:35;11.60;;;5.82;;
7971;SDS011;4031;49.758;6.120;2024-01-16T06:45:03;7.13;;;4.63;;
7971;SDS011;4031;49.758;6.120;2024-01-16T06:47:30;9.60;;;6.20;;
7971;SDS011;4031;49.758;6.120;2024-01-16T06:49:56;8.50;;;5.20;;
7971;SDS011;4031;49.758;6.120;2024-01-16T06:52:21;6.27;;;5.23;;
7971;SDS011;4031;49.758;6.120;2024-01-16T06:54:47;6.03;;;4.07;;
7971;SDS011;4031;49.758;6.120;2024-01-16T06:57:13;8.00;;;5.50;;
7971;SDS011;4031;49.758;6.120;2024-01-16T06:59:39;7.80;;;5.73;;
7971;SDS011;4031;49.758;6.120;2024-01-16T07:02:05;6.33;;;4.90;;
7971;SDS011;4031;49.758;6.120;2024-01-16T07:04:31;21.80;;;6.03;;
7971;SDS011;4031;49.758;6.120;2024-01-16T07:06:58;10.50;;;5.82;;
7971;SDS011;4031;49.758;6.120;2024-01-16T07:09:24;6.35;;;5.07;;
7971;SDS011;4031;49.758;6.120;2024-01-16T07:11:52;8.77;;;4.68;;
7971;SDS011;4031;49.758;6.120;2024-01-16T07:14:18;6.75;;;5.03;;
7971;SDS011;4031;49.758;6.120;2024-01-16T07:16:44;7.38;;;4.53;;
7971;SDS011;4031;49.758;6.120;2024-01-16T07:19:11;7.60;;;4.45;;
7971;SDS011;4031;49.758;6.120;2024-01-16T07:21:37;7.43;;;5.77;;
7971;SDS011;4031;49.758;6.120;2024-01-16T07:24:03;7.90;;;5.70;;
7971;SDS011;4031;49.758;6.120;2024-01-16T07:26:29;8.45;;;5.63;;
7971;SDS011;4031;49.758;6.120;2024-01-16T07:28:55;5.17;;;4.67;;
7971;SDS011;4031;49.758;6.120;2024-01-16T07:31:21;8.37;;;6.10;;
7971;SDS011;4031;49.758;6.120;2024-01-16T07:33:46;12.60;;;6.43;;
7971;SDS011;4031;49.758;6.120;2024-01-16T07:36:13;11.97;;;4.90;;
7971;SDS011;4031;49.758;6.120;2024-01-16T07:38:39;7.82;;;5.90;;
7971;SDS011;4031;49.758;6.120;2024-01-16T07:41:05;7.87;;;5.57;;
7971;SDS011;4031;49.758;6.120;2024-01-16T07:43:31;8.52;;;5.97;;
7971;SDS011;4031;49.758;6.120;2024-01-16T07:45:57;7.93;;;5.57;;
7971;SDS011;4031;49.758;6.120;2024-01-16T07:48:23;11.23;;;6.57;;
7971;SDS011;4031;49.758;6.120;2024-01-16T07:50:49;6.80;;;5.60;;
7971;SDS011;4031;49.758;6.120;2024-01-16T07:53:15;7.03;;;6.10;;
7971;SDS011;4031;49.758;6.120;2024-01-16T07:55:44;10.40;;;6.30;;
7971;SDS011;4031;49.758;6.120;2024-01-16T07:58:10;7.22;;;5.40;;
7971;SDS011;4031;49.758;6.120;2024-01-16T08:00:36;7.13;;;6.28;;
7971;SDS011;4031;49.758;6.120;2024-01-16T08:03:02;8.27;;;6.00;;
7971;SDS011;4031;49.758;6.120;2024-01-16T08:05:29;9.27;;;6.45;;
7971;SDS011;4031;49.758;6.120;2024-01-16T08:07:55;16.13;;;9.10;;
7971;SDS011;4031;49.758;6.120;2024-01-16T08:10:22;9.00;;;6.85;;
7971;SDS011;4031;49.758;6.120;2024-01-16T08:12:48;11.23;;;6.93;;
7971;SDS011;4031;49.758;6.120;2024-01-16T08:15:14;7.20;;;6.10;;
7971;SDS011;4031;49.758;6.120;2024-01-16T08:17:40;10.67;;;7.07;;
7971;SDS011;4031;49.758;6.120;2024-01-16T08:20:06;13.07;;;6.80;;
7971;SDS011;4031;49.758;6.120;2024-01-16T08:22:38;15.27;;;6.57;;
7971;SDS011;4031;49.758;6.120;2024-01-16T08:25:04;18.52;;;8.18;;
7971;SDS011;4031;49.758;6.120;2024-01-16T08:27:30;13.20;;;6.07;;
7971;SDS011;4031;49.758;6.120;2024-01-16T08:29:56;13.88;;;6.70;;
7971;SDS011;4031;49.758;6.120;2024-01-16T08:32:22;11.90;;;5.93;;
7971;SDS011;4031;49.758;6.120;2024-01-16T08:34:48;11.43;;;6.60;;
7971;SDS011;4031;49.758;6.120;2024-01-16T08:37:13;9.73;;;6.70;;
7971;SDS011;4031;49.758;6.120;2024-01-16T08:39:39;10.43;;;6.80;;
7971;SDS011;4031;49.758;6.120;2024-01-16T08:42:05;7.63;;;6.33;;
7971;SDS011;4031;49.758;6.120;2024-01-16T08:44:31;10.33;;;5.93;;
7971;SDS011;4031;49.758;6.120;2024-01-16T08:46:56;6.40;;;5.40;;
7971;SDS011;4031;49.758;6.120;2024-01-16T08:49:24;13.95;;;6.18;;
7971;SDS011;4031;49.758;6.120;2024-01-16T08:51:50;8.60;;;6.60;;
7971;SDS011;4031;49.758;6.120;2024-01-16T08:54:15;6.47;;;4.97;;
7971;SDS011;4031;49.758;6.120;2024-01-16T08:56:41;13.63;;;5.50;;
7971;SDS011;4031;49.758;6.120;2024-01-16T08:59:07;9.27;;;5.63;;
7971;SDS011;4031;49.758;6.120;2024-01-16T09:01:35;8.88;;;5.20;;
7971;SDS011;4031;49.758;6.120;2024-01-16T09:04:00;12.10;;;5.60;;
7971;SDS011;4031;49.758;6.120;2024-01-16T09:06:26;14.17;;;5.53;;
7971;SDS011;4031;49.758;6.120;2024-01-16T09:08:52;9.80;;;6.10;;
7971;SDS011;4031;49.758;6.120;2024-01-16T09:11:17;8.73;;;5.80;;
7971;SDS011;4031;49.758;6.120;2024-01-16T09:13:43;12.57;;;5.90;;
7971;SDS011;4031;49.758;6.120;2024-01-16T09:16:09;7.97;;;5.47;;
7971;SDS011;4031;49.758;6.120;2024-01-16T09:18:35;12.70;;;6.33;;
7971;SDS011;4031;49.758;6.120;2024-01-16T09:21:01;10.70;;;5.73;;
7971;SDS011;4031;49.758;6.120;2024-01-16T09:23:26;6.23;;;4.90;;
7971;SDS011;4031;49.758;6.120;2024-01-16T09:25:52;5.50;;;4.70;;
7971;SDS011;4031;49.758;6.120;2024-01-16T09:28:18;11.17;;;5.47;;
7971;SDS011;4031;49.758;6.120;2024-01-16T09:30:44;7.03;;;6.33;;
7971;SDS011;4031;49.758;6.120;2024-01-16T09:33:09;8.93;;;6.20;;
7971;SDS011;4031;49.758;6.120;2024-01-16T09:35:35;5.67;;;5.17;;
7971;SDS011;4031;49.758;6.120;2024-01-16T09:38:01;8.53;;;5.37;;
7971;SDS011;4031;49.758;6.120;2024-01-16T09:40:30;13.48;;;6.63;;
7971;SDS011;4031;49.758;6.120;2024-01-16T09:42:55;12.73;;;6.10;;
7971;SDS011;4031;49.758;6.120;2024-01-16T09:45:22;6.60;;;5.35;;
7971;SDS011;4031;49.758;6.120;2024-01-16T09:47:50;7.57;;;5.38;;
7971;SDS011;4031;49.758;6.120;2024-01-16T09:50:17;11.10;;;5.63;;
7971;SDS011;4031;49.758;6.120;2024-01-16T09:52:47;7.60;;;5.10;;
7971;SDS011;4031;49.758;6.120;2024-01-16T09:55:13;10.63;;;6.40;;
7971;SDS011;4031;49.758;6.120;2024-01-16T09:57:43;9.00;;;5.30;;
7971;SDS011;4031;49.758;6.120;2024-01-16T10:00:11;10.03;;;5.93;;
7971;SDS011;4031;49.758;6.120;2024-01-16T10:02:41;17.10;;;6.70;;
7971;SDS011;4031;49.758;6.120;2024-01-16T10:05:07;18.50;;;5.80;;
7971;SDS011;4031;49.758;6.120;2024-01-16T10:07:38;9.30;;;5.40;;
7971;SDS011;4031;49.758;6.120;2024-01-16T10:10:05;12.90;;;5.70;;
7971;SDS011;4031;49.758;6.120;2024-01-16T10:12:35;8.17;;;5.40;;
7971;SDS011;4031;49.758;6.120;2024-01-16T10:15:07;6.30;;;4.57;;
7971;SDS011;4031;49.758;6.120;2024-01-16T10:20:07;6.80;;;5.60;;
7971;SDS011;4031;49.758;6.120;2024-01-16T10:22:38;6.73;;;4.97;;
7971;SDS011;4031;49.758;6.120;2024-01-16T10:25:11;7.57;;;6.40;;
7971;SDS011;4031;49.758;6.120;2024-01-16T10:27:41;6.97;;;4.77;;
7971;SDS011;4031;49.758;6.120;2024-01-16T10:30:07;7.90;;;5.47;;
7971;SDS011;4031;49.758;6.120;2024-01-16T10:32:35;9.70;;;5.40;;
7971;SDS011;4031;49.758;6.120;2024-01-16T10:35:04;7.03;;;4.97;;
7971;SDS011;4031;49.758;6.120;2024-01-16T10:42:58;9.53;;;5.10;;
7971;SDS011;4031;49.758;6.120;2024-01-16T10:45:26;6.90;;;5.20;;
7971;SDS011;4031;49.758;6.120;2024-01-16T10:48:01;9.77;;;5.50;;
7971;SDS011;4031;49.758;6.120;2024-01-16T10:50:32;10.23;;;6.60;;
7971;SDS011;4031;49.758;6.120;2024-01-16T10:53:00;6.67;;;5.33;;
7971;SDS011;4031;49.758;6.120;2024-01-16T10:55:30;9.00;;;4.73;;
7971;SDS011;4031;49.758;6.120;2024-01-16T10:58:23;6.97;;;5.17;;
7971;SDS011;4031;49.758;6.120;2024-01-16T11:00:53;8.87;;;5.83;;
7971;SDS011;4031;49.758;6.120;2024-01-16T11:03:42;5.77;;;4.47;;
7971;SDS011;4031;49.758;6.120;2024-01-16T11:06:15;8.20;;;5.70;;
7971;SDS011;4031;49.758;6.120;2024-01-16T11:08:42;10.80;;;5.80;;
7971;SDS011;4031;49.758;6.120;2024-01-16T11:11:12;7.80;;;5.73;;
7971;SDS011;4031;49.758;6.120;2024-01-16T11:13:39;9.33;;;6.00;;
7971;SDS011;4031;49.758;6.120;2024-01-16T11:16:06;9.40;;;5.33;;
7971;SDS011;4031;49.758;6.120;2024-01-16T11:18:35;6.60;;;4.73;;
7971;SDS011;4031;49.758;6.120;2024-01-16T11:21:02;8.53;;;4.60;;
7971;SDS011;4031;49.758;6.120;2024-01-16T11:23:40;9.50;;;5.20;;
7971;SDS011;4031;49.758;6.120;2024-01-16T11:28:59;9.67;;;5.57;;
7971;SDS011;4031;49.758;6.120;2024-01-16T11:33:57;7.63;;;4.83;;
7971;SDS011;4031;49.758;6.120;2024-01-16T11:39:07;9.30;;;4.57;;
7971;SDS011;4031;49.758;6.120;2024-01-16T11:41:49;4.73;;;3.90;;
7971;SDS011;4031;49.758;6.120;2024-01-16T11:45:00;7.20;;;4.50;;
7971;SDS011;4031;49.758;6.120;2024-01-16T11:47:20;8.80;;;4.00;;
7971;SDS011;4031;49.758;6.120;2024-01-16T11:49:47;10.83;;;4.13;;
7971;SDS011;4031;49.758;6.120;2024-01-16T11:52:16;5.53;;;3.80;;
7971;SDS011;4031;49.758;6.120;2024-01-16T12:00:24;4.23;;;3.47;;
7971;SDS011;4031;49.758;6.120;2024-01-16T12:02:57;6.40;;;4.37;;
7971;SDS011;4031;49.758;6.120;2024-01-16T12:05:30;5.83;;;3.67;;
7971;SDS011;4031;49.758;6.120;2024-01-16T12:07:57;5.87;;;4.20;;
7971;SDS011;4031;49.758;6.120;2024-01-16T12:10:23;6.27;;;4.80;;
7971;SDS011;4031;49.758;6.120;2024-01-16T12:12:51;12.90;;;4.63;;
7971;SDS011;4031;49.758;6.120;2024-01-16T12:15:23;7.93;;;4.80;;
7971;SDS011;4031;49.758;6.120;2024-01-16T12:17:56;8.53;;;4.77;;
7971;SDS011;4031;49.758;6.120;2024-01-16T12:20:29;7.37;;;4.60;;
7971;SDS011;4031;49.758;6.120;2024-01-16T12:23:00;8.93;;;5.77;;
7971;SDS011;4031;49.758;6.120;2024-01-16T12:25:29;10.73;;;5.40;;
7971;SDS011;4031;49.758;6.120;2024-01-16T12:28:15;9.03;;;3.80;;
7971;SDS011;4031;49.758;6.120;2024-01-16T12:30:48;8.50;;;4.47;;
7971;SDS011;4031;49.758;6.120;2024-01-16T12:33:16;5.30;;;3.53;;
7971;SDS011;4031;49.758;6.120;2024-01-16T12:35:46;6.83;;;3.20;;
7971;SDS011;4031;49.758;6.120;2024-01-16T12:38:13;17.43;;;4.57;;
7971;SDS011;4031;49.758;6.120;2024-01-16T12:40:47;7.80;;;4.27;;
7971;SDS011;4031;49.758;6.120;2024-01-16T12:43:18;8.23;;;4.00;;
7971;SDS011;4031;49.758;6.120;2024-01-16T12:45:44;6.90;;;4.00;;
7971;SDS011;4031;49.758;6.120;2024-01-16T12:48:10;5.17;;;3.90;;
7971;SDS011;4031;49.758;6.120;2024-01-16T12:50:36;8.30;;;4.60;;
7971;SDS011;4031;49.758;6.120;2024-01-16T12:53:09;10.40;;;4.00;;
7971;SDS011;4031;49.758;6.120;2024-01-16T12:55:37;9.70;;;4.20;;
7971;SDS011;4031;49.758;6.120;2024-01-16T12:58:14;8.13;;;4.13;;
7971;SDS011;4031;49.758;6.120;2024-01-16T13:00:45;6.23;;;4.03;;
7971;SDS011;4031;49.758;6.120;2024-01-16T13:03:15;7.33;;;4.40;;
7971;SDS011;4031;49.758;6.120;2024-01-16T13:05:56;5.40;;;3.80;;
7971;SDS011;4031;49.758;6.120;2024-01-16T13:08:25;14.10;;;4.33;;
7971;SDS011;4031;49.758;6.120;2024-01-16T13:11:04;5.00;;;4.43;;
7971;SDS011;4031;49.758;6.120;2024-01-16T13:13:32;5.20;;;4.20;;
7971;SDS011;4031;49.758;6.120;2024-01-16T13:15:59;7.50;;;5.00;;
7971;SDS011;4031;49.758;6.120;2024-01-16T13:18:26;7.47;;;4.17;;
7971;SDS011;4031;49.758;6.120;2024-01-16T13:20:58;6.87;;;4.67;;
7971;SDS011;4031;49.758;6.120;2024-01-16T13:23:25;5.60;;;5.10;;
7971;SDS011;4031;49.758;6.120;2024-01-16T13:25:52;4.50;;;3.90;;
7971;SDS011;4031;49.758;6.120;2024-01-16T13:28:28;6.70;;;4.47;;
7971;SDS011;4031;49.758;6.120;2024-01-16T13:30:54;10.07;;;5.73;;
7971;SDS011;4031;49.758;6.120;2024-01-16T13:33:21;8.13;;;4.40;;
7971;SDS011;4031;49.758;6.120;2024-01-16T13:35:52;6.57;;;5.40;;
7971;SDS011;4031;49.758;6.120;2024-01-16T13:38:19;8.23;;;4.30;;
7971;SDS011;4031;49.758;6.120;2024-01-16T13:40:46;8.30;;;4.87;;
7971;SDS011;4031;49.758;6.120;2024-01-16T13:43:12;4.77;;;4.03;;
7971;SDS011;4031;49.758;6.120;2024-01-16T13:45:38;7.60;;;4.00;;
7971;SDS011;4031;49.758;6.120;2024-01-16T13:48:05;9.63;;;3.80;;
7971;SDS011;4031;49.758;6.120;2024-01-16T13:50:32;4.47;;;3.87;;
7971;SDS011;4031;49.758;6.120;2024-01-16T13:52:58;7.70;;;5.00;;
7971;SDS011;4031;49.758;6.120;2024-01-16T13:55:27;6.80;;;4.03;;
7971;SDS011;4031;49.758;6.120;2024-01-16T13:57:53;5.50;;;3.80;;
7971;SDS011;4031;49.758;6.120;2024-01-16T14:00:19;7.93;;;5.20;;
7971;SDS011;4031;49.758;6.120;2024-01-16T14:02:45;6.47;;;4.40;;
7971;SDS011;4031;49.758;6.120;2024-01-16T14:05:13;8.43;;;4.10;;
7971;SDS011;4031;49.758;6.120;2024-01-16T14:07:47;7.30;;;4.70;;
7971;SDS011;4031;49.758;6.120;2024-01-16T14:10:16;7.43;;;4.80;;
7971;SDS011;4031;49.758;6.120;2024-01-16T14:12:43;12.80;;;4.60;;
7971;SDS011;4031;49.758;6.120;2024-01-16T14:15:10;9.60;;;4.37;;
7971;SDS011;4031;49.758;6.120;2024-01-16T14:17:48;8.77;;;3.80;;
7971;SDS011;4031;49.758;6.120;2024-01-16T14:20:16;9.27;;;5.33;;
7971;SDS011;4031;49.758;6.120;2024-01-16T14:22:43;6.70;;;3.60;;
7971;SDS011;4031;49.758;6.120;2024-01-16T14:25:10;8.03;;;5.33;;
7971;SDS011;4031;49.758;6.120;2024-01-16T14:27:41;6.87;;;4.60;;
7971;SDS011;4031;49.758;6.120;2024-01-16T14:30:10;7.47;;;4.97;;
7971;SDS011;4031;49.758;6.120;2024-01-16T14:32:39;6.33;;;4.20;;
7971;SDS011;4031;49.758;6.120;2024-01-16T14:35:12;6.83;;;4.80;;
7971;SDS011;4031;49.758;6.120;2024-01-16T14:37:39;11.03;;;5.10;;
7971;SDS011;4031;49.758;6.120;2024-01-16T14:40:06;5.67;;;4.60;;
7971;SDS011;4031;49.758;6.120;2024-01-16T14:42:41;8.33;;;4.90;;
7971;SDS011;4031;49.758;6.120;2024-01-16T14:45:12;10.33;;;5.70;;
7971;SDS011;4031;49.758;6.120;2024-01-16T14:47:42;7.83;;;4.53;;
7971;SDS011;4031;49.758;6.120;2024-01-16T14:50:10;7.73;;;4.73;;
7971;SDS011;4031;49.758;6.120;2024-01-16T14:52:37;7.10;;;4.60;;
7971;SDS011;4031;49.758;6.120;2024-01-16T14:55:06;6.10;;;4.80;;
7971;SDS011;4031;49.758;6.120;2024-01-16T14:57:32;6.10;;;5.00;;
7971;SDS011;4031;49.758;6.120;2024-01-16T15:00:06;5.17;;;4.77;;
7971;SDS011;4031;49.758;6.120;2024-01-16T15:02:48;5.77;;;4.33;;
7971;SDS011;4031;49.758;6.120;2024-01-16T15:05:17;8.40;;;6.10;;
7971;SDS011;4031;49.758;6.120;2024-01-16T15:07:44;8.90;;;5.03;;
7971;SDS011;4031;49.758;6.120;2024-01-16T15:10:11;5.67;;;3.80;;
7971;SDS011;4031;49.758;6.120;2024-01-16T15:12:38;5.37;;;4.00;;
7971;SDS011;4031;49.758;6.120;2024-01-16T15:15:05;5.80;;;4.67;;
7971;SDS011;4031;49.758;6.120;2024-01-16T15:17:32;6.13;;;5.47;;
7971;SDS011;4031;49.758;6.120;2024-01-16T15:19:58;5.07;;;4.30;;
7971;SDS011;4031;49.758;6.120;2024-01-16T15:22:24;10.33;;;4.83;;
7971;SDS011;4031;49.758;6.120;2024-01-16T15:24:51;6.33;;;3.83;;
7971;SDS011;4031;49.758;6.120;2024-01-16T15:27:16;8.00;;;4.43;;
7971;SDS011;4031;49.758;6.120;2024-01-16T15:29:42;4.17;;;3.60;;
7971;SDS011;4031;49.758;6.120;2024-01-16T15:32:08;5.43;;;4.07;;
7971;SDS011;4031;49.758;6.120;2024-01-16T15:34:35;8.33;;;3.73;;